Time;durP1;ratioP1;P1;durP2;ratioP2;P2;SDS_P1;SDS_P2;PMS_P1;PMS_P2;Temp;Humidity;BMP_temperature;BMP_pressure;BME280_temperature;BME280_humidity;BME280_pressure;Samples;Min_cycle;Max_cycle;Signal;HPM_P1;HPM_P2
2021/09/14 10:33:31;;;;;;;4.85;4.13;;;20.50;99.90;;;;;;5070701;28;20607;-77
2021/09/14 10:35:57;;;;;;;4.10;3.80;;;20.60;99.90;;;;;;5070860;28;20160;-78
2021/09/14 10:38:23;;;;;;;4.10;3.90;;;20.60;99.90;;;;;;5070644;28;20221;-78
2021/09/14 10:40:53;;;;;;;4.38;4.05;;;20.70;99.90;;;;;;5070579;28;20194;-76
2021/09/14 10:43:25;;;;;;;3.38;3.25;;;20.90;99.90;;;;;;5070557;28;20164;-76
2021/09/14 10:45:52;;;;;;;3.65;3.45;;;21.00;99.90;;;;;;5070573;28;20585;-76
2021/09/14 10:48:22;;;;;;;4.82;3.65;;;21.10;99.90;;;;;;5070442;28;20164;-76
2021/09/14 10:50:48;;;;;;;4.18;3.67;;;21.20;99.90;;;;;;5069184;28;20210;-76
2021/09/14 10:53:31;;;;;;;3.70;3.50;;;21.30;99.90;;;;;;5070255;28;20211;-76
2021/09/14 10:55:59;;;;;;;3.85;3.40;;;21.40;99.90;;;;;;5070309;28;20180;-77
2021/09/14 10:58:27;;;;;;;10.75;4.72;;;21.50;99.90;;;;;;5068908;28;20262;-77
2021/09/14 11:00:54;;;;;;;3.38;3.22;;;21.50;99.90;;;;;;5070260;28;20269;-77
2021/09/14 11:03:20;;;;;;;4.20;3.90;;;21.50;99.90;;;;;;5070206;28;20196;-77
2021/09/14 11:05:49;;;;;;;3.88;3.63;;;21.60;99.90;;;;;;5068920;28;20168;-77
2021/09/14 11:08:20;;;;;;;3.65;3.45;;;21.60;99.90;;;;;;5070070;28;20175;-77
2021/09/14 11:10:46;;;;;;;4.32;3.22;;;21.60;99.90;;;;;;5070000;28;20258;-76
2021/09/14 11:13:21;;;;;;;5.22;3.60;;;21.50;99.90;;;;;;5069847;28;20306;-76
2021/09/14 11:15:47;;;;;;;3.95;3.65;;;21.50;99.90;;;;;;5069974;28;20232;-77
2021/09/14 11:18:13;;;;;;;3.70;3.50;;;21.50;99.90;;;;;;5069913;28;20690;-77
2021/09/14 11:20:38;;;;;;;4.47;3.20;;;21.50;99.90;;;;;;5069877;28;20528;-77
2021/09/14 11:23:05;;;;;;;4.30;3.80;;;21.50;99.90;;;;;;5069709;28;20203;-77
2021/09/14 11:25:31;;;;;;;4.40;4.10;;;21.60;99.90;;;;;;5069722;28;20192;-77
2021/09/14 11:28:01;;;;;;;3.97;3.67;;;21.60;99.90;;;;;;5069626;28;20616;-77
2021/09/14 11:30:29;;;;;;;3.97;3.67;;;21.70;99.90;;;;;;5069746;28;20179;-77
2021/09/14 11:32:56;;;;;;;4.00;3.40;;;21.60;99.90;;;;;;5069304;28;20211;-77
2021/09/14 11:35:22;;;;;;;4.43;3.22;;;21.70;99.90;;;;;;5068365;28;20199;-77
2021/09/14 11:38:05;;;;;;;3.88;3.47;;;21.80;99.90;;;;;;5069445;28;20160;-77
2021/09/14 11:40:34;;;;;;;3.60;3.30;;;21.80;99.90;;;;;;5069429;28;20548;-77
2021/09/14 11:43:03;;;;;;;3.55;3.25;;;21.90;99.90;;;;;;5065166;28;20180;-77
2021/09/14 11:45:30;;;;;;;6.88;3.60;;;21.90;99.90;;;;;;5056117;28;20171;-77
2021/09/14 11:47:57;;;;;;;3.38;3.17;;;22.00;99.90;;;;;;5055915;28;20199;-77
2021/09/14 11:50:27;;;;;;;7.03;3.80;;;22.10;99.90;;;;;;5055980;28;20176;-77
2021/09/14 11:53:14;;;;;;;3.03;2.92;;;22.30;99.90;;;;;;5055793;28;20200;-77
2021/09/14 11:55:44;;;;;;;3.72;3.47;;;22.50;99.90;;;;;;5055895;28;20271;-77
2021/09/14 11:58:10;;;;;;;3.80;3.50;;;22.60;99.90;;;;;;5055933;28;20528;-78
2021/09/14 12:00:42;;;;;;;3.88;3.47;;;22.80;99.90;;;;;;5055804;28;20168;-77
2021/09/14 12:03:08;;;;;;;3.60;3.30;;;22.90;99.90;;;;;;5055781;28;20172;-77
2021/09/14 12:05:33;;;;;;;4.18;3.67;;;23.00;99.90;;;;;;5055815;28;20180;-77
2021/09/14 12:08:02;;;;;;;3.40;2.88;;;23.10;99.90;;;;;;5055758;28;20175;-77
2021/09/14 12:10:28;;;;;;;3.75;3.55;;;23.20;99.90;;;;;;5055567;28;20180;-77
2021/09/14 12:12:55;;;;;;;4.03;3.30;;;23.30;99.90;;;;;;5055524;28;20208;-77
2021/09/14 12:15:28;;;;;;;4.40;3.22;;;23.40;99.90;;;;;;5055545;28;20176;-78
2021/09/14 12:18:03;;;;;;;4.45;3.20;;;23.50;99.90;;;;;;5055568;28;20171;-77
2021/09/14 12:20:29;;;;;;;3.28;3.08;;;23.50;99.90;;;;;;5055520;28;20215;-77
2021/09/14 12:22:54;;;;;;;3.13;2.92;;;23.50;99.90;;;;;;5055416;28;20567;-77
2021/09/14 12:25:20;;;;;;;2.85;2.67;;;23.50;99.90;;;;;;5055365;28;20180;-77
2021/09/14 12:27:45;;;;;;;2.95;2.80;;;23.60;99.90;;;;;;5055409;28;20164;-78
2021/09/14 12:30:11;;;;;;;2.60;2.50;;;23.60;99.90;;;;;;5055194;28;20199;-78
2021/09/14 12:32:37;;;;;;;2.90;2.70;;;23.70;99.90;;;;;;5053731;28;20228;-78
2021/09/14 12:35:03;;;;;;;3.05;2.85;;;23.80;99.90;;;;;;5055241;28;20214;-77
2021/09/14 12:37:29;;;;;;;3.15;2.45;;;23.80;99.90;;;;;;5055116;28;20165;-77
2021/09/14 12:39:54;;;;;;;2.60;2.50;;;23.80;99.90;;;;;;5053829;28;20168;-78
2021/09/14 12:42:20;;;;;;;2.33;2.22;;;23.80;99.90;;;;;;5055038;28;20179;-78
2021/09/14 12:44:45;;;;;;;2.83;2.63;;;23.70;99.90;;;;;;5055468;28;20165;-78
2021/09/14 12:47:11;;;;;;;2.83;2.60;;;23.70;99.90;;;;;;5054916;28;20626;-78
2021/09/14 12:49:37;;;;;;;3.50;3.22;;;23.70;99.90;;;;;;5054963;28;20172;-78
2021/09/14 12:52:02;;;;;;;4.38;3.38;;;23.70;99.90;;;;;;5054748;28;20192;-77
2021/09/14 12:54:28;;;;;;;5.05;4.25;;;23.70;99.90;;;;;;5053191;28;20218;-77
2021/09/14 12:56:56;;;;;;;3.22;3.00;;;23.70;99.90;;;;;;5054160;28;20169;-78
2021/09/14 12:59:21;;;;;;;6.38;2.63;;;23.70;99.90;;;;;;5054683;28;20635;-78
2021/09/14 13:01:47;;;;;;;3.22;2.60;;;23.80;99.90;;;;;;5054703;28;20180;-77
2021/09/14 13:04:12;;;;;;;4.07;2.75;;;23.80;99.90;;;;;;5054694;28;20255;-77
2021/09/14 13:06:38;;;;;;;2.53;2.40;;;23.70;99.90;;;;;;5054610;28;20235;-78
2021/09/14 13:09:04;;;;;;;2.85;2.75;;;23.70;99.90;;;;;;5054561;28;20172;-77
2021/09/14 13:11:30;;;;;;;3.10;2.90;;;23.60;99.90;;;;;;5054459;28;20646;-77
2021/09/14 13:16:40;;;;;;;4.47;2.80;;;23.50;99.90;;;;;;5054446;28;20171;-78
2021/09/14 13:19:05;;;;;;;3.33;2.70;;;23.50;99.90;;;;;;5054311;28;20169;-78
2021/09/14 13:21:31;;;;;;;3.00;2.78;;;23.50;99.90;;;;;;5054337;28;20165;-78
2021/09/14 13:23:58;;;;;;;3.05;2.85;;;23.60;99.90;;;;;;5054271;28;20177;-77
2021/09/14 13:26:24;;;;;;;2.95;2.75;;;23.50;99.90;;;;;;5054129;28;20172;-77
2021/09/14 13:28:51;;;;;;;3.08;2.97;;;23.50;99.90;;;;;;5052767;28;20173;-77
2021/09/14 13:31:17;;;;;;;3.05;2.85;;;23.50;99.90;;;;;;5053853;28;20626;-77
2021/09/14 13:33:43;;;;;;;3.38;3.17;;;23.60;99.90;;;;;;5054148;28;20547;-78
2021/09/14 13:36:10;;;;;;;2.85;2.75;;;23.60;99.90;;;;;;5054041;28;20168;-78
2021/09/14 13:38:36;;;;;;;4.82;2.35;;;23.50;99.90;;;;;;5054052;28;20220;-76
2021/09/14 13:41:07;;;;;;;3.03;2.70;;;23.50;99.90;;;;;;5053976;28;20177;-77
2021/09/14 13:43:36;;;;;;;4.20;2.88;;;23.60;99.90;;;;;;5054225;28;20200;-75
2021/09/14 13:46:11;;;;;;;3.45;3.08;;;23.50;99.90;;;;;;5052559;28;20168;-76
2021/09/14 13:48:48;;;;;;;3.35;3.08;;;23.50;99.90;;;;;;5052521;28;20535;-76
2021/09/14 13:51:18;;;;;;;3.42;3.13;;;23.50;99.90;;;;;;5053681;28;20178;-78
2021/09/14 13:53:46;;;;;;;3.30;3.08;;;23.50;99.90;;;;;;5053736;28;20148;-77
2021/09/14 13:56:16;;;;;;;2.83;2.70;;;23.60;99.90;;;;;;5053743;28;20167;-77
2021/09/14 13:58:42;;;;;;;3.15;2.95;;;23.60;99.90;;;;;;5052401;28;20188;-77
2021/09/14 14:01:08;;;;;;;3.35;3.15;;;23.70;99.90;;;;;;5053664;28;20665;-77
2021/09/14 14:03:34;;;;;;;4.05;2.90;;;23.80;99.90;;;;;;5053571;28;20180;-77
2021/09/14 14:05:59;;;;;;;3.03;2.83;;;24.20;99.90;;;;;;5053272;28;20164;-78
2021/09/14 14:08:25;;;;;;;3.28;3.08;;;24.40;99.90;;;;;;5053467;28;20679;-77
2021/09/14 14:10:51;;;;;;;3.28;2.65;;;24.50;99.90;;;;;;5053490;28;20175;-77
2021/09/14 14:13:16;;;;;;;3.30;3.00;;;24.60;99.90;;;;;;5053313;28;20204;-78
2021/09/14 14:15:42;;;;;;;3.15;2.95;;;24.50;99.90;;;;;;5052036;28;20653;-77
2021/09/14 14:18:08;;;;;;;3.15;2.95;;;24.30;99.90;;;;;;5053396;28;20187;-77
2021/09/14 14:20:34;;;;;;;3.47;3.17;;;24.10;99.90;;;;;;5053285;28;20265;-77
2021/09/14 14:23:00;;;;;;;3.20;3.00;;;23.90;99.90;;;;;;5053359;28;20665;-77
2021/09/14 14:25:25;;;;;;;3.13;2.92;;;23.70;99.90;;;;;;5052003;28;20523;-77
2021/09/14 14:27:51;;;;;;;4.40;3.33;;;23.60;99.90;;;;;;5053327;28;20181;-77
2021/09/14 14:30:16;;;;;;;3.45;3.15;;;23.50;99.90;;;;;;5052058;28;20226;-77
2021/09/14 14:32:42;;;;;;;3.35;3.15;;;23.40;99.90;;;;;;5051766;28;20224;-77
2021/09/14 14:35:08;;;;;;;4.80;3.50;;;23.30;99.90;;;;;;5053202;28;20176;-77
2021/09/14 14:37:33;;;;;;;3.50;3.30;;;23.30;99.90;;;;;;5053161;28;20690;-77
2021/09/14 14:39:59;;;;;;;3.67;3.38;;;23.30;99.90;;;;;;5053121;28;20514;-77
2021/09/14 14:42:24;;;;;;;3.28;2.97;;;23.30;99.90;;;;;;5053154;28;20177;-77
2021/09/14 14:44:50;;;;;;;2.78;2.67;;;23.20;99.90;;;;;;5053210;28;20168;-77
2021/09/14 14:47:15;;;;;;;3.22;3.00;;;23.20;99.90;;;;;;5053149;28;20176;-77
2021/09/14 14:49:41;;;;;;;3.67;3.47;;;23.10;99.90;;;;;;5053066;28;20179;-77
2021/09/14 14:52:07;;;;;;;3.60;3.33;;;23.00;99.90;;;;;;5052906;28;20549;-77
2021/09/14 14:54:32;;;;;;;3.20;3.10;;;23.00;99.90;;;;;;5053112;28;20168;-77
2021/09/14 14:56:58;;;;;;;3.47;2.95;;;23.00;99.90;;;;;;5053034;28;20558;-77
2021/09/14 14:59:23;;;;;;;3.80;3.60;;;23.00;99.90;;;;;;5052958;28;20652;-77
2021/09/14 15:01:49;;;;;;;3.35;3.15;;;23.00;99.90;;;;;;5052954;28;20646;-77
2021/09/14 15:04:18;;;;;;;4.22;3.13;;;23.00;99.90;;;;;;5052893;28;20255;-77
2021/09/14 15:06:44;;;;;;;6.60;3.20;;;23.10;99.90;;;;;;5051605;28;20678;-77
2021/09/14 15:09:10;;;;;;;5.07;3.92;;;23.20;99.90;;;;;;5052957;28;20179;-77
2021/09/14 15:11:36;;;;;;;3.67;3.47;;;23.20;99.90;;;;;;5052778;28;20188;-77
2021/09/14 15:14:01;;;;;;;3.45;3.25;;;23.10;99.90;;;;;;5052855;28;20567;-77
2021/09/14 15:16:27;;;;;;;4.38;3.78;;;23.10;99.90;;;;;;5052772;28;20169;-77
2021/09/14 15:18:52;;;;;;;3.75;3.50;;;23.10;99.90;;;;;;5054090;28;20165;-77
2021/09/14 15:21:18;;;;;;;3.17;3.03;;;23.00;99.90;;;;;;5056578;28;20217;-77
2021/09/14 15:23:44;;;;;;;4.53;3.85;;;22.90;99.90;;;;;;5056515;28;20176;-77
2021/09/14 15:26:09;;;;;;;3.35;3.17;;;22.80;99.90;;;;;;5056421;28;20165;-77
2021/09/14 15:28:35;;;;;;;3.42;3.13;;;22.60;99.90;;;;;;5056459;28;20207;-77
2021/09/14 15:31:01;;;;;;;4.68;4.10;;;22.50;99.90;;;;;;5056395;28;20627;-77
2021/09/14 15:33:27;;;;;;;6.50;3.70;;;22.40;99.90;;;;;;5054863;28;20228;-77
2021/09/14 15:35:53;;;;;;;3.65;3.35;;;22.30;99.90;;;;;;5056317;28;20227;-77
2021/09/14 15:38:21;;;;;;;4.00;3.80;;;22.20;99.90;;;;;;5056254;28;20165;-77
2021/09/14 15:40:49;;;;;;;3.90;3.70;;;22.10;99.90;;;;;;5056329;28;20253;-77
2021/09/14 15:43:16;;;;;;;4.63;4.13;;;22.10;99.90;;;;;;5056157;28;20526;-77
2021/09/14 15:45:42;;;;;;;4.07;3.78;;;22.10;99.90;;;;;;5056156;28;20581;-77
2021/09/14 15:48:08;;;;;;;3.83;3.50;;;22.00;99.90;;;;;;5055943;28;20165;-77
2021/09/14 15:50:34;;;;;;;3.70;3.50;;;22.00;99.90;;;;;;5055974;28;20495;-77
2021/09/14 15:53:00;;;;;;;3.92;3.63;;;22.00;99.90;;;;;;5055820;28;20211;-78
2021/09/14 15:55:26;;;;;;;4.10;3.90;;;21.90;99.90;;;;;;5055994;28;20528;-78
2021/09/14 15:57:51;;;;;;;5.05;4.43;;;21.90;99.90;;;;;;5055852;28;20164;-77
2021/09/14 16:00:17;;;;;;;4.38;3.97;;;21.90;99.90;;;;;;5055865;28;20255;-77
2021/09/14 16:02:42;;;;;;;4.95;4.75;;;21.90;99.90;;;;;;5055732;28;20176;-77
2021/09/14 16:05:08;;;;;;;6.18;3.63;;;21.80;99.90;;;;;;5055769;28;20176;-77
2021/09/14 16:07:34;;;;;;;4.40;4.10;;;21.80;99.90;;;;;;5055688;28;20653;-77
2021/09/14 16:09:59;;;;;;;4.05;3.85;;;21.80;99.90;;;;;;5055918;28;20206;-77
2021/09/14 16:12:25;;;;;;;3.92;3.65;;;21.70;99.90;;;;;;5055521;28;20239;-78
2021/09/14 16:14:51;;;;;;;3.90;3.70;;;21.60;99.90;;;;;;5055608;28;20167;-78
2021/09/14 16:17:16;;;;;;;3.90;3.55;;;21.60;99.90;;;;;;5055444;28;20626;-77
2021/09/14 16:19:45;;;;;;;5.45;4.20;;;21.60;99.90;;;;;;5054229;28;20172;-77
